createdAt,value
2023-01-10T00:00:06.036Z,58.90
2023-01-10T00:02:32.791Z,59.10
2023-01-10T00:04:59.481Z,59.00
2023-01-10T00:07:26.246Z,59.00
2023-01-10T00:09:54.252Z,59.10
2023-01-10T00:12:20.931Z,58.90
2023-01-10T00:14:47.584Z,59.20
2023-01-10T00:17:14.244Z,59.00
2023-01-10T00:19:40.892Z,59.10
2023-01-10T00:22:07.556Z,59.10
2023-01-10T00:24:34.201Z,58.90
2023-01-10T00:27:02.234Z,59.10
2023-01-10T00:29:30.517Z,59.40
2023-01-10T00:31:57.312Z,59.10
2023-01-10T00:34:24.195Z,59.10
2023-01-10T00:36:50.892Z,59.20
2023-01-10T00:39:17.769Z,59.00
2023-01-10T00:41:44.419Z,59.10
2023-01-10T00:44:12.417Z,59.00
2023-01-10T00:46:39.234Z,59.60
2023-01-10T00:49:05.979Z,58.80
2023-01-10T00:51:32.661Z,58.60
2023-01-10T00:53:59.319Z,58.60
2023-01-10T00:56:25.945Z,58.30
2023-01-10T00:58:52.581Z,58.30
2023-01-10T01:01:20.763Z,58.30
2023-01-10T01:03:47.463Z,58.30
2023-01-10T01:06:14.126Z,58.10
2023-01-10T01:08:40.759Z,58.00
2023-01-10T01:11:07.421Z,57.80
2023-01-10T01:13:34.100Z,57.90
2023-01-10T01:16:01.069Z,57.70
2023-01-10T01:18:29.286Z,57.90
2023-01-10T01:20:57.746Z,57.80
2023-01-10T01:23:24.568Z,57.70
2023-01-10T01:25:51.870Z,57.50
2023-01-10T01:28:18.943Z,57.60
2023-01-10T01:30:45.630Z,57.60
2023-01-10T01:33:12.345Z,57.60
2023-01-10T01:35:43.536Z,57.50
2023-01-10T01:38:10.245Z,57.50
2023-01-10T01:40:37.449Z,57.60
2023-01-10T01:43:04.126Z,57.60
2023-01-10T01:45:40.282Z,57.80
2023-01-10T01:48:14.344Z,58.60
2023-01-10T01:50:48.425Z,58.00
2023-01-10T01:53:19.979Z,58.10
2023-01-10T01:55:47.230Z,59.00
2023-01-10T01:58:17.035Z,58.90
2023-01-10T02:00:44.277Z,58.90
2023-01-10T02:03:13.477Z,58.90
2023-01-10T02:05:42.668Z,58.90
2023-01-10T02:08:12.359Z,59.10
2023-01-10T02:10:44.259Z,59.00
2023-01-10T02:13:14.395Z,59.10
2023-01-10T02:15:41.224Z,59.20
2023-01-10T02:18:08.309Z,59.20
2023-01-10T02:20:44.410Z,59.10
2023-01-10T02:23:39.945Z,59.10
2023-01-10T02:26:34.237Z,59.30
2023-01-10T02:29:23.969Z,59.40
2023-01-10T02:32:18.767Z,59.20
2023-01-10T02:35:00.215Z,59.50
2023-01-10T02:37:40.712Z,59.50
2023-01-10T02:40:13.639Z,59.50
2023-01-10T02:42:46.933Z,59.40
2023-01-10T02:45:18.813Z,60.20
2023-01-10T02:47:46.795Z,59.70
2023-01-10T02:50:31.476Z,59.80
2023-01-10T02:53:03.048Z,59.70
2023-01-10T02:55:53.570Z,59.90
2023-01-10T02:58:32.086Z,60.10
2023-01-10T03:01:06.501Z,60.20
2023-01-10T03:03:41.613Z,60.10
2023-01-10T03:06:22.727Z,59.80
2023-01-10T03:08:55.550Z,60.00
2023-01-10T03:11:25.862Z,59.80
2023-01-10T03:13:57.221Z,59.80
2023-01-10T03:16:29.121Z,59.80
2023-01-10T03:19:00.478Z,59.00
2023-01-10T03:21:30.597Z,59.70
2023-01-10T03:24:03.563Z,59.60
2023-01-10T03:26:38.430Z,58.70
2023-01-10T03:29:08.992Z,58.80
2023-01-10T03:31:39.934Z,58.70
2023-01-10T03:34:09.226Z,58.80
2023-01-10T03:36:41.738Z,58.70
2023-01-10T03:39:18.101Z,58.80
2023-01-10T03:41:50.337Z,58.70
2023-01-10T03:44:20.718Z,59.60
2023-01-10T03:46:52.415Z,58.70
2023-01-10T03:49:22.293Z,58.80
2023-01-10T03:51:49.777Z,58.80
2023-01-10T03:54:17.068Z,59.40
2023-01-10T03:56:45.198Z,58.50
2023-01-10T03:59:12.235Z,59.30
2023-01-10T04:01:39.019Z,58.50
2023-01-10T04:04:05.857Z,58.20
2023-01-10T04:06:34.040Z,58.40
2023-01-10T04:09:00.702Z,58.40
2023-01-10T04:11:27.370Z,58.40
2023-01-10T04:13:54.116Z,58.20
2023-01-10T04:16:20.800Z,58.20
2023-01-10T04:18:47.726Z,58.80
2023-01-10T04:21:14.555Z,58.70
2023-01-10T04:26:43.579Z,57.90
2023-01-10T04:29:10.619Z,58.00
2023-01-10T04:31:37.607Z,58.80
2023-01-10T04:34:04.323Z,57.90
2023-01-10T04:36:30.993Z,58.60
2023-01-10T04:38:57.700Z,59.00
2023-01-10T04:41:24.397Z,58.90
2023-01-10T04:43:52.742Z,58.90
2023-01-10T04:46:19.430Z,58.70
2023-01-10T04:48:46.181Z,58.80
2023-01-10T04:51:12.825Z,58.80
2023-01-10T04:53:39.481Z,58.80
2023-01-10T04:56:08.379Z,57.90
2023-01-10T04:58:36.698Z,58.70
2023-01-10T05:01:09.500Z,58.80
2023-01-10T05:03:36.195Z,58.90
2023-01-10T05:06:02.951Z,58.80
2023-01-10T05:08:29.720Z,58.80
2023-01-10T05:10:56.444Z,58.80
2023-01-10T05:13:23.137Z,58.70
2023-01-10T05:15:49.884Z,58.80
2023-01-10T05:18:18.036Z,58.60
2023-01-10T05:20:44.726Z,58.70
2023-01-10T05:23:11.361Z,58.70
2023-01-10T05:25:38.041Z,58.70
2023-01-10T05:28:04.973Z,58.50
2023-01-10T05:30:31.728Z,58.60
2023-01-10T05:32:58.406Z,58.70
2023-01-10T05:35:26.461Z,58.70
2023-01-10T05:37:53.132Z,58.70
2023-01-10T05:40:19.824Z,58.50
2023-01-10T05:42:46.480Z,58.50
2023-01-10T05:45:13.202Z,58.70
2023-01-10T05:47:39.909Z,58.60
2023-01-10T05:50:07.672Z,58.80
2023-01-10T05:52:35.705Z,58.80
2023-01-10T05:55:02.435Z,59.30
2023-01-10T05:57:29.127Z,59.00
2023-01-10T05:59:55.858Z,59.10
2023-01-10T06:02:22.764Z,59.20
2023-01-10T06:04:49.539Z,59.00
2023-01-10T06:07:16.208Z,59.00
2023-01-10T06:09:44.207Z,59.00
2023-01-10T06:12:10.903Z,58.90
2023-01-10T06:14:37.632Z,58.80
2023-01-10T06:17:04.436Z,58.90
2023-01-10T06:19:31.111Z,59.00
2023-01-10T06:21:57.817Z,58.70
2023-01-10T06:24:24.471Z,58.90
2023-01-10T06:26:52.472Z,58.70
2023-01-10T06:29:19.136Z,58.80
2023-01-10T06:31:45.836Z,58.70
2023-01-10T06:34:13.181Z,58.70
2023-01-10T06:36:39.888Z,58.70
2023-01-10T06:39:06.548Z,58.70
2023-01-10T06:41:33.397Z,58.80
2023-01-10T06:44:01.411Z,59.10
2023-01-10T06:46:28.074Z,59.10
2023-01-10T06:48:54.808Z,59.00
2023-01-10T06:51:21.530Z,58.90
2023-01-10T06:53:48.243Z,59.80
2023-01-10T06:56:14.955Z,59.20
2023-01-10T06:58:41.744Z,59.00
2023-01-10T07:01:13.775Z,59.10
2023-01-10T07:03:40.543Z,59.10
2023-01-10T07:06:07.971Z,59.20
2023-01-10T07:08:34.636Z,59.20
2023-01-10T07:11:01.315Z,59.30
2023-01-10T07:13:28.024Z,59.90
2023-01-10T07:16:01.942Z,59.10
2023-01-10T07:18:37.013Z,59.30
2023-01-10T07:21:04.346Z,59.30
2023-01-10T07:23:34.180Z,59.30
2023-01-10T07:26:03.632Z,59.30
2023-01-10T07:28:33.998Z,59.30
2023-01-10T07:31:01.943Z,59.20
2023-01-10T07:33:36.404Z,59.10
2023-01-10T07:36:03.821Z,59.10
2023-01-10T07:38:33.488Z,59.10
2023-01-10T07:41:01.748Z,59.80
2023-01-10T07:43:28.397Z,58.90
2023-01-10T07:45:57.673Z,59.00
2023-01-10T07:48:32.920Z,59.10
2023-01-10T07:51:08.918Z,59.10
2023-01-10T07:53:37.903Z,59.10
2023-01-10T07:56:05.417Z,59.10
2023-01-10T07:58:32.487Z,58.70
2023-01-10T08:01:03.395Z,58.60
2023-01-10T08:03:33.902Z,58.60
2023-01-10T08:06:01.736Z,58.90
2023-01-10T08:08:29.225Z,57.90
2023-01-10T08:10:59.329Z,58.80
2023-01-10T08:13:26.386Z,58.70
2023-01-10T08:15:53.148Z,58.70
2023-01-10T08:18:21.188Z,58.80
2023-01-10T08:20:50.943Z,58.80
2023-01-10T08:23:18.035Z,59.00
2023-01-10T08:25:45.309Z,58.80
2023-01-10T08:28:12.695Z,58.70
2023-01-10T08:30:39.967Z,58.80
2023-01-10T08:33:08.449Z,58.70
2023-01-10T08:35:37.525Z,58.70
2023-01-10T08:38:05.650Z,58.60
2023-01-10T08:40:32.398Z,57.80
2023-01-10T08:43:00.142Z,57.80
2023-01-10T08:45:27.131Z,58.70
2023-01-10T08:47:53.916Z,57.60
2023-01-10T08:50:20.854Z,57.70
2023-01-10T08:52:47.627Z,57.80
2023-01-10T08:55:15.738Z,57.80
2023-01-10T08:57:42.423Z,57.90
2023-01-10T09:00:10.529Z,57.90
2023-01-10T09:02:37.266Z,57.90
2023-01-10T09:05:06.289Z,57.90
2023-01-10T09:07:33.165Z,57.90
2023-01-10T09:09:59.820Z,57.80
2023-01-10T09:12:27.917Z,57.80
2023-01-10T09:14:54.627Z,57.60
2023-01-10T09:17:21.325Z,57.80
2023-01-10T09:19:47.960Z,57.70
2023-01-10T09:22:14.648Z,57.90
2023-01-10T09:24:41.302Z,57.70
2023-01-10T09:27:07.996Z,57.80
2023-01-10T09:29:36.013Z,57.80
2023-01-10T09:32:02.785Z,57.70
2023-01-10T09:34:29.429Z,57.80
2023-01-10T09:36:56.061Z,57.70
2023-01-10T09:39:22.717Z,57.70
2023-01-10T09:42:05.854Z,57.80
2023-01-10T09:44:46.158Z,57.60
2023-01-10T09:47:22.823Z,57.60
2023-01-10T09:50:00.180Z,57.60
2023-01-10T09:52:31.107Z,57.70
2023-01-10T09:55:00.862Z,57.80
2023-01-10T09:57:27.635Z,57.80
2023-01-10T09:59:57.205Z,57.70
2023-01-10T10:02:29.190Z,57.70
2023-01-10T10:05:07.380Z,57.70
2023-01-10T10:07:34.382Z,57.60
2023-01-10T10:10:01.337Z,57.40
2023-01-10T10:12:38.025Z,57.50
2023-01-10T10:15:18.360Z,57.50
2023-01-10T10:17:52.948Z,57.20
2023-01-10T10:20:34.446Z,57.30
2023-01-10T10:23:21.257Z,57.30
2023-01-10T10:25:58.024Z,57.30
2023-01-10T10:28:54.527Z,57.30
2023-01-10T10:31:37.321Z,57.10
2023-01-10T10:34:11.643Z,57.10
2023-01-10T10:36:44.821Z,57.20
2023-01-10T10:39:17.503Z,57.30
2023-01-10T10:41:46.912Z,57.30
2023-01-10T10:44:30.551Z,57.40
2023-01-10T10:46:59.509Z,57.20
2023-01-10T10:49:36.372Z,57.20
2023-01-10T10:52:07.907Z,57.10
2023-01-10T10:54:36.199Z,57.00
2023-01-10T10:57:03.009Z,57.20
2023-01-10T10:59:29.706Z,57.20
2023-01-10T11:01:57.854Z,57.20
2023-01-10T11:04:25.529Z,57.20
2023-01-10T11:06:52.782Z,57.10
2023-01-10T11:09:21.679Z,57.00
2023-01-10T11:11:49.338Z,57.10
2023-01-10T11:14:36.456Z,57.10
2023-01-10T11:17:19.917Z,57.00
2023-01-10T11:19:56.082Z,56.60
2023-01-10T11:22:23.441Z,56.90
2023-01-10T11:24:54.121Z,56.90
2023-01-10T11:27:23.561Z,56.30
2023-01-10T11:29:51.835Z,56.10
2023-01-10T11:32:23.452Z,55.50
2023-01-10T11:34:53.238Z,56.00
2023-01-10T11:37:22.293Z,56.20
2023-01-10T11:39:48.957Z,56.20
2023-01-10T11:42:29.852Z,56.20
2023-01-10T11:45:14.509Z,55.60
2023-01-10T11:47:45.627Z,55.60
2023-01-10T11:50:17.817Z,55.40
2023-01-10T11:52:46.121Z,55.70
2023-01-10T11:55:19.728Z,55.60
2023-01-10T11:57:54.409Z,55.70
2023-01-10T12:00:22.316Z,55.40
2023-01-10T12:02:50.380Z,55.30
2023-01-10T12:05:20.719Z,55.40
2023-01-10T12:07:54.604Z,55.40
2023-01-10T12:10:23.143Z,55.50
2023-01-10T12:12:53.839Z,55.30
2023-01-10T12:15:23.361Z,55.50
2023-01-10T12:17:52.307Z,55.50
2023-01-10T12:20:19.397Z,56.20
2023-01-10T12:22:49.547Z,55.40
2023-01-10T12:25:20.409Z,54.90
2023-01-10T12:27:47.804Z,55.70
2023-01-10T12:30:20.678Z,54.60
2023-01-10T12:32:52.675Z,54.50
2023-01-10T12:35:22.727Z,54.70
2023-01-10T12:37:56.222Z,54.80
2023-01-10T12:40:37.364Z,54.80
2023-01-10T12:43:16.136Z,54.90
2023-01-10T12:45:48.624Z,54.90
2023-01-10T12:48:25.331Z,54.80
2023-01-10T12:50:57.032Z,54.90
2023-01-10T12:53:30.069Z,55.10
2023-01-10T12:55:58.585Z,55.00
2023-01-10T12:58:31.187Z,54.90
2023-01-10T13:00:59.923Z,54.60
2023-01-10T13:03:33.286Z,54.70
2023-01-10T13:06:01.442Z,55.00
2023-01-10T13:08:31.797Z,54.80
2023-01-10T13:11:00.059Z,54.70
2023-01-10T13:13:32.634Z,54.80
2023-01-10T13:16:12.781Z,54.60
2023-01-10T13:18:59.331Z,54.50
2023-01-10T13:21:26.492Z,54.40
2023-01-10T13:23:57.676Z,54.60
2023-01-10T13:26:24.527Z,54.80
2023-01-10T13:28:56.334Z,54.80
2023-01-10T13:31:25.063Z,54.60
2023-01-10T13:33:55.450Z,54.00
2023-01-10T13:36:27.980Z,53.80
2023-01-10T13:38:56.600Z,53.90
2023-01-10T13:41:24.570Z,53.90
2023-01-10T13:44:04.112Z,53.90
2023-01-10T13:46:42.369Z,53.50
2023-01-10T13:49:47.919Z,53.70
2023-01-10T13:52:31.974Z,53.70
2023-01-10T13:55:00.999Z,54.00
2023-01-10T13:57:50.313Z,54.10
2023-01-10T14:00:43.029Z,54.20
2023-01-10T14:03:41.328Z,54.30
2023-01-10T14:06:13.992Z,54.40
2023-01-10T14:08:50.004Z,54.50
2023-01-10T14:11:16.993Z,54.50
2023-01-10T14:13:48.114Z,54.40
2023-01-10T14:16:34.131Z,54.30
2023-01-10T14:19:02.253Z,54.10
2023-01-10T14:21:31.114Z,54.50
2023-01-10T14:23:59.211Z,54.30
2023-01-10T14:26:32.395Z,53.90
2023-01-10T14:29:00.350Z,54.00
2023-01-10T14:31:28.916Z,54.10
2023-01-10T14:33:58.096Z,53.60
2023-01-10T14:36:28.299Z,54.00
2023-01-10T14:39:02.452Z,53.80
2023-01-10T14:41:34.482Z,53.90
2023-01-10T14:44:02.472Z,54.40
2023-01-10T14:46:36.967Z,54.00
2023-01-10T14:49:20.932Z,54.10
2023-01-10T14:51:48.116Z,54.00
2023-01-10T14:54:18.797Z,54.10
2023-01-10T14:56:47.745Z,54.10
2023-01-10T14:59:22.592Z,54.30
2023-01-10T15:01:50.905Z,54.30
2023-01-10T15:04:19.229Z,54.40
2023-01-10T15:06:56.949Z,54.40
2023-01-10T15:09:25.360Z,54.00
2023-01-10T15:11:53.678Z,54.10
2023-01-10T15:14:22.148Z,54.10
2023-01-10T15:16:51.876Z,54.20
2023-01-10T15:19:21.832Z,54.30
2023-01-10T15:21:48.969Z,54.10
2023-01-10T15:24:35.404Z,54.30
2023-01-10T15:27:04.561Z,54.20
2023-01-10T15:29:32.754Z,54.40
2023-01-10T15:32:07.966Z,54.30
2023-01-10T15:34:34.786Z,54.20
2023-01-10T15:37:02.356Z,54.30
2023-01-10T15:39:33.519Z,54.30
2023-01-10T15:42:02.942Z,54.30
2023-01-10T15:44:40.610Z,54.20
2023-01-10T15:47:44.819Z,54.00
2023-01-10T15:50:19.841Z,54.00
2023-01-10T15:52:51.468Z,54.30
2023-01-10T15:55:43.302Z,54.30
2023-01-10T15:58:21.632Z,53.90
2023-01-10T16:00:50.257Z,54.10
2023-01-10T16:03:26.039Z,54.40
2023-01-10T16:05:54.470Z,54.40
2023-01-10T16:08:24.796Z,54.60
2023-01-10T16:10:55.005Z,54.50
2023-01-10T16:13:21.713Z,54.60
2023-01-10T16:15:48.376Z,54.60
2023-01-10T16:18:15.081Z,54.60
2023-01-10T16:20:45.299Z,54.60
2023-01-10T16:23:16.568Z,54.80
2023-01-10T16:25:45.969Z,54.70
2023-01-10T16:28:15.533Z,54.70
2023-01-10T16:30:42.825Z,54.80
2023-01-10T16:33:11.310Z,54.70
2023-01-10T16:35:38.151Z,54.40
2023-01-10T16:38:04.837Z,54.50
2023-01-10T16:40:36.632Z,54.30
2023-01-10T16:43:03.376Z,54.00
2023-01-10T16:45:31.496Z,54.30
2023-01-10T16:47:58.186Z,54.20
2023-01-10T16:50:24.897Z,54.30
2023-01-10T16:52:51.628Z,54.30
2023-01-10T16:55:21.616Z,54.40
2023-01-10T16:57:48.388Z,54.30
2023-01-10T17:00:16.013Z,54.50
2023-01-10T17:02:44.304Z,54.60
2023-01-10T17:05:11.434Z,54.70
2023-01-10T17:07:38.151Z,54.70
2023-01-10T17:10:05.387Z,54.80
2023-01-10T17:12:34.338Z,54.80
2023-01-10T17:15:01.798Z,54.70
2023-01-10T17:17:29.259Z,54.80
2023-01-10T17:19:57.451Z,54.90
2023-01-10T17:22:24.140Z,54.80
2023-01-10T17:24:50.832Z,54.80
2023-01-10T17:27:17.520Z,54.90
2023-01-10T17:29:44.178Z,55.50
2023-01-10T17:32:10.901Z,54.90
2023-01-10T17:34:37.531Z,54.80
2023-01-10T17:37:05.978Z,54.80
2023-01-10T17:39:32.658Z,54.90
2023-01-10T17:41:59.420Z,54.80
2023-01-10T17:44:26.058Z,54.70
2023-01-10T17:46:52.729Z,54.80
2023-01-10T17:49:19.399Z,54.80
2023-01-10T17:51:46.060Z,54.70
2023-01-10T17:54:14.066Z,54.90
2023-01-10T17:56:40.849Z,55.10
2023-01-10T17:59:07.900Z,55.00
2023-01-10T18:01:34.644Z,55.20
2023-01-10T18:04:01.396Z,55.20
2023-01-10T18:06:28.177Z,55.30
2023-01-10T18:08:54.946Z,55.20
2023-01-10T18:11:23.249Z,55.20
2023-01-10T18:13:49.939Z,55.10
2023-01-10T18:16:16.691Z,55.20
2023-01-10T18:18:43.339Z,55.20
2023-01-10T18:21:13.044Z,55.20
2023-01-10T18:23:39.762Z,55.10
2023-01-10T18:26:08.884Z,55.30
2023-01-10T18:28:42.394Z,55.30
2023-01-10T18:31:12.192Z,55.20
2023-01-10T18:33:39.028Z,55.40
2023-01-10T18:36:07.857Z,55.40
2023-01-10T18:38:35.703Z,55.40
2023-01-10T18:41:03.172Z,55.50
2023-01-10T18:43:29.848Z,55.40
2023-01-10T18:46:01.398Z,55.40
2023-01-10T18:48:28.100Z,55.30
2023-01-10T18:50:55.149Z,55.20
2023-01-10T18:53:21.957Z,55.00
2023-01-10T18:55:53.414Z,55.10
2023-01-10T18:58:22.405Z,55.30
2023-01-10T19:00:49.049Z,55.20
2023-01-10T19:03:17.090Z,55.20
2023-01-10T19:05:43.918Z,55.10
2023-01-10T19:08:10.761Z,55.20
2023-01-10T19:10:57.278Z,55.30
2023-01-10T19:13:24.111Z,55.20
2023-01-10T19:15:50.870Z,55.40
2023-01-10T19:18:18.983Z,55.40
2023-01-10T19:20:51.667Z,55.40
2023-01-10T19:23:18.361Z,55.30
2023-01-10T19:25:45.008Z,55.40
2023-01-10T19:28:11.677Z,55.40
2023-01-10T19:30:38.395Z,55.30
2023-01-10T19:33:05.061Z,55.30
2023-01-10T19:35:33.084Z,55.40
2023-01-10T19:37:59.724Z,55.30
2023-01-10T19:40:26.419Z,55.40
2023-01-10T19:42:53.087Z,55.30
2023-01-10T19:45:19.759Z,55.30
2023-01-10T19:47:46.376Z,55.30
2023-01-10T19:50:13.106Z,55.30
2023-01-10T19:52:41.124Z,55.10
2023-01-10T19:55:08.447Z,55.10
2023-01-10T19:57:35.498Z,55.20
2023-01-10T20:00:02.199Z,55.40
2023-01-10T20:02:28.888Z,55.30
2023-01-10T20:04:55.592Z,55.30
2023-01-10T20:07:22.422Z,55.50
2023-01-10T20:09:50.503Z,55.30
2023-01-10T20:12:17.208Z,55.30
2023-01-10T20:14:43.866Z,55.30
2023-01-10T20:17:10.556Z,55.40
2023-01-10T20:19:37.231Z,55.40
2023-01-10T20:22:03.922Z,55.60
2023-01-10T20:24:30.669Z,55.40
2023-01-10T20:26:59.213Z,55.40
2023-01-10T20:29:25.977Z,55.40
2023-01-10T20:31:52.647Z,55.30
2023-01-10T20:34:19.358Z,55.40
2023-01-10T20:36:46.144Z,55.50
2023-01-10T20:39:12.838Z,55.50
2023-01-10T20:41:39.497Z,55.50
2023-01-10T20:44:07.594Z,56.10
2023-01-10T20:46:34.367Z,55.40
2023-01-10T20:49:02.811Z,55.30
2023-01-10T20:51:32.296Z,55.40
2023-01-10T20:53:59.705Z,55.40
2023-01-10T20:56:29.150Z,55.40
2023-01-10T20:58:55.874Z,55.40
2023-01-10T21:01:34.187Z,55.40
2023-01-10T21:04:02.118Z,55.30
2023-01-10T21:06:28.931Z,55.30
2023-01-10T21:08:55.609Z,55.40
2023-01-10T21:11:22.526Z,55.30
2023-01-10T21:13:49.193Z,55.30
2023-01-10T21:16:18.020Z,55.30
2023-01-10T21:18:46.286Z,55.30
2023-01-10T21:21:14.606Z,55.30
2023-01-10T21:23:41.653Z,55.30
2023-01-10T21:26:09.851Z,55.30
2023-01-10T21:28:38.250Z,55.40
2023-01-10T21:31:05.739Z,55.40
2023-01-10T21:33:32.958Z,55.50
2023-01-10T21:36:01.002Z,55.40
2023-01-10T21:38:28.795Z,55.40
2023-01-10T21:40:56.410Z,55.40
2023-01-10T21:43:23.583Z,55.40
2023-01-10T21:45:50.501Z,56.40
2023-01-10T21:48:17.131Z,56.30
2023-01-10T21:50:43.798Z,56.30
2023-01-10T21:53:11.914Z,56.30
2023-01-10T21:55:38.644Z,55.40
2023-01-10T21:58:05.346Z,56.20
2023-01-10T22:00:32.105Z,56.20
2023-01-10T22:02:58.867Z,56.20
2023-01-10T22:05:25.731Z,56.30
2023-01-10T22:07:52.472Z,55.40
2023-01-10T22:10:20.651Z,56.40
2023-01-10T22:12:47.351Z,56.30
2023-01-10T22:15:14.232Z,56.30
2023-01-10T22:17:41.206Z,55.40
2023-01-10T22:20:09.151Z,55.50
2023-01-10T22:22:37.104Z,56.20
2023-01-10T22:25:04.554Z,56.20
2023-01-10T22:27:32.640Z,56.10
2023-01-10T22:29:59.350Z,56.10
2023-01-10T22:32:26.071Z,56.20
2023-01-10T22:34:52.821Z,56.20
2023-01-10T22:37:19.544Z,56.20
2023-01-10T22:39:48.411Z,56.10
2023-01-10T22:42:15.352Z,56.10
2023-01-10T22:44:43.427Z,56.10
2023-01-10T22:47:10.120Z,56.00
2023-01-10T22:49:36.840Z,56.10
2023-01-10T22:52:03.727Z,56.10
2023-01-10T22:54:30.509Z,56.20
2023-01-10T22:56:57.269Z,56.30
2023-01-10T22:59:23.972Z,56.20
2023-01-10T23:01:52.156Z,56.30
2023-01-10T23:04:18.937Z,56.30
2023-01-10T23:06:45.928Z,56.30
2023-01-10T23:09:12.642Z,56.30
2023-01-10T23:11:39.339Z,56.30
2023-01-10T23:14:06.023Z,56.30
2023-01-10T23:16:32.863Z,55.60
2023-01-10T23:19:01.052Z,56.40
2023-01-10T23:21:27.812Z,56.50
2023-01-10T23:23:55.348Z,56.50
2023-01-10T23:26:22.268Z,56.60
2023-01-10T23:28:51.428Z,56.60
2023-01-10T23:31:20.507Z,56.60
2023-01-10T23:33:48.291Z,56.60
2023-01-10T23:36:16.748Z,56.60
2023-01-10T23:38:43.737Z,56.60
2023-01-10T23:41:10.967Z,56.70
2023-01-10T23:43:37.672Z,56.60
2023-01-10T23:46:04.652Z,56.70
2023-01-10T23:48:31.339Z,56.80
2023-01-10T23:50:58.271Z,56.90
2023-01-10T23:53:26.534Z,56.80
2023-01-10T23:55:53.364Z,56.70
2023-01-10T23:58:20.473Z,56.70
